Time;durP1;ratioP1;P1;durP2;ratioP2;P2;SDS_P1;SDS_P2;PMS_P1;PMS_P2;Temp;Humidity;BMP_temperature;BMP_pressure;BME280_temperature;BME280_humidity;BME280_pressure;Samples;Min_cycle;Max_cycle;Signal;HPM_P1;HPM_P2
2023/05/06 00:01:42;;;;;;;10.52;2.58;;;13.80;99.90;;;;;;5065157;28;20041;-62
2023/05/06 00:04:09;;;;;;;10.15;2.50;;;13.80;99.90;;;;;;5068816;28;20148;-62
2023/05/06 00:06:36;;;;;;;18.23;2.53;;;13.80;99.90;;;;;;5062855;28;20087;-62
2023/05/06 00:09:03;;;;;;;13.50;2.65;;;13.80;99.90;;;;;;5061758;28;20040;-62
2023/05/06 00:11:29;;;;;;;17.42;2.47;;;13.80;99.90;;;;;;5059667;28;20044;-63
2023/05/06 00:13:56;;;;;;;20.08;2.67;;;13.80;99.90;;;;;;5058325;28;20518;-63
2023/05/06 00:16:23;;;;;;;9.82;2.20;;;13.80;99.90;;;;;;5058296;28;20048;-61
2023/05/06 00:18:50;;;;;;;16.63;3.78;;;13.80;99.90;;;;;;5065159;28;20072;-61
2023/05/06 00:21:16;;;;;;;13.23;2.63;;;13.80;99.90;;;;;;5061882;28;20050;-61
2023/05/06 00:23:43;;;;;;;12.40;2.80;;;13.80;99.90;;;;;;5052507;28;20075;-61
2023/05/06 00:26:10;;;;;;;10.32;2.35;;;13.80;99.90;;;;;;5064871;28;20128;-61
2023/05/06 00:28:37;;;;;;;11.07;2.10;;;13.70;99.90;;;;;;5051756;28;20055;-61
2023/05/06 00:31:04;;;;;;;8.45;1.65;;;13.80;99.90;;;;;;5065149;28;20159;-61
2023/05/06 00:33:31;;;;;;;14.50;2.70;;;13.80;99.90;;;;;;5057791;28;20044;-61
2023/05/06 00:35:57;;;;;;;11.05;2.15;;;13.70;99.90;;;;;;5061593;28;20060;-61
2023/05/06 00:38:24;;;;;;;7.28;1.80;;;13.70;99.90;;;;;;5067280;28;20135;-60
2023/05/06 00:40:51;;;;;;;13.88;2.10;;;13.70;99.90;;;;;;5059130;28;20573;-61
2023/05/06 00:43:18;;;;;;;16.45;2.65;;;13.70;99.90;;;;;;5065305;28;20135;-61
2023/05/06 00:45:45;;;;;;;15.75;2.58;;;13.60;99.90;;;;;;5061209;28;20503;-61
2023/05/06 00:48:13;;;;;;;12.98;2.78;;;13.60;99.90;;;;;;5070501;28;20579;-61
2023/05/06 00:50:40;;;;;;;13.38;2.40;;;13.60;99.90;;;;;;5055245;28;20602;-61
2023/05/06 00:53:07;;;;;;;14.23;2.95;;;13.60;99.90;;;;;;5058539;28;20344;-61
2023/05/06 00:55:34;;;;;;;14.63;2.78;;;13.60;99.90;;;;;;5060326;28;20510;-61
2023/05/06 00:58:01;;;;;;;14.63;3.70;;;13.70;99.90;;;;;;5061438;28;20076;-61
2023/05/06 01:00:28;;;;;;;9.05;2.35;;;13.70;99.90;;;;;;5060739;28;20128;-60
2023/05/06 01:02:54;;;;;;;15.18;2.42;;;13.60;99.90;;;;;;5061127;28;20076;-61
2023/05/06 01:05:21;;;;;;;14.40;2.00;;;13.70;99.90;;;;;;5055171;28;20053;-61
2023/05/06 01:07:55;;;;;;;11.60;2.45;;;13.60;99.90;;;;;;5060312;28;20080;-61
2023/05/06 01:10:29;;;;;;;11.90;2.72;;;13.60;99.90;;;;;;5052873;28;20055;-61
2023/05/06 01:13:11;;;;;;;10.82;2.92;;;13.60;99.90;;;;;;5062414;28;20044;-60
2023/05/06 01:15:44;;;;;;;14.38;2.75;;;13.60;99.90;;;;;;5054514;28;20048;-61
2023/05/06 01:18:16;;;;;;;10.68;2.90;;;13.70;99.90;;;;;;5061755;28;20049;-62
2023/05/06 01:20:48;;;;;;;12.63;4.45;;;13.70;99.90;;;;;;5055686;28;20512;-61
2023/05/06 01:23:15;;;;;;;14.60;2.65;;;13.80;99.90;;;;;;5061639;28;20088;-60
2023/05/06 01:25:42;;;;;;;14.00;2.70;;;13.80;99.90;;;;;;5051277;28;20430;-61
2023/05/06 01:28:10;;;;;;;13.70;2.88;;;13.80;99.90;;;;;;5063662;28;20128;-61
2023/05/06 01:30:49;;;;;;;15.32;2.67;;;13.80;99.90;;;;;;5051738;28;20088;-61
2023/05/06 01:33:18;;;;;;;16.52;3.28;;;13.90;99.90;;;;;;5062812;28;20048;-61
2023/05/06 01:36:14;;;;;;;18.00;2.80;;;13.90;99.90;;;;;;5051432;28;20063;-62
2023/05/06 01:38:48;;;;;;;13.43;2.97;;;13.90;99.90;;;;;;5057257;28;20046;-61
2023/05/06 01:41:15;;;;;;;10.10;2.83;;;13.90;99.90;;;;;;5067499;28;20048;-60
2023/05/06 01:43:44;;;;;;;16.17;3.20;;;13.90;99.90;;;;;;5067308;28;20388;-60
2023/05/06 01:46:16;;;;;;;13.80;2.83;;;13.90;99.90;;;;;;5050719;28;20131;-60
2023/05/06 01:48:45;;;;;;;17.30;2.85;;;13.90;99.90;;;;;;4710713;28;10000393;-61
2023/05/06 01:51:12;;;;;;;7.32;2.80;;;13.80;99.90;;;;;;5062944;28;20540;-61
2023/05/06 01:53:39;;;;;;;13.45;2.63;;;13.80;99.90;;;;;;5056626;28;20037;-61
2023/05/06 01:56:06;;;;;;;15.43;2.90;;;13.80;99.90;;;;;;5067468;28;20143;-61
2023/05/06 01:58:32;;;;;;;14.00;3.13;;;13.80;99.90;;;;;;5058989;28;20037;-61
2023/05/06 02:00:59;;;;;;;19.95;3.83;;;13.90;99.90;;;;;;5066152;28;20135;-61
2023/05/06 02:03:26;;;;;;;14.95;4.00;;;13.90;99.90;;;;;;5059883;28;20052;-60
2023/05/06 02:05:53;;;;;;;7.72;2.67;;;13.90;99.90;;;;;;5064064;28;20049;-62
2023/05/06 02:08:20;;;;;;;11.43;2.75;;;13.90;99.90;;;;;;5060534;28;20065;-61
2023/05/06 02:10:47;;;;;;;17.00;3.30;;;13.90;99.90;;;;;;5063808;28;20309;-61
2023/05/06 02:13:13;;;;;;;16.88;3.67;;;13.90;99.90;;;;;;5062272;28;20041;-61
2023/05/06 02:15:40;;;;;;;14.77;2.92;;;13.80;99.90;;;;;;5063729;28;20132;-61
2023/05/06 02:18:07;;;;;;;13.40;3.50;;;13.80;99.90;;;;;;5063729;28;20311;-60
2023/05/06 02:20:34;;;;;;;14.05;2.85;;;13.70;99.90;;;;;;5071738;28;20143;-61
2023/05/06 02:23:00;;;;;;;12.43;2.70;;;13.70;99.90;;;;;;5060227;28;20072;-61
2023/05/06 02:25:28;;;;;;;15.23;3.13;;;13.70;99.90;;;;;;5062071;28;20083;-61
2023/05/06 02:27:54;;;;;;;12.93;2.70;;;13.60;99.90;;;;;;5056241;28;20374;-61
2023/05/06 02:30:21;;;;;;;16.52;3.22;;;13.50;99.90;;;;;;5066104;28;20132;-61
2023/05/06 02:32:48;;;;;;;14.93;3.45;;;13.60;99.90;;;;;;5056018;28;20128;-61
2023/05/06 02:35:15;;;;;;;14.45;3.35;;;13.60;99.90;;;;;;5066866;28;20052;-61
2023/05/06 02:37:42;;;;;;;15.85;3.50;;;13.60;99.90;;;;;;5037599;28;20049;-61
2023/05/06 02:40:09;;;;;;;14.43;3.13;;;13.60;99.90;;;;;;5066765;28;20284;-61
2023/05/06 02:42:35;;;;;;;15.55;2.65;;;13.50;99.90;;;;;;5055751;28;20080;-61
2023/05/06 02:45:03;;;;;;;11.38;3.10;;;13.50;99.90;;;;;;5063927;28;20526;-61
2023/05/06 02:47:29;;;;;;;15.85;4.13;;;13.40;99.90;;;;;;5056486;28;20063;-61
2023/05/06 02:49:56;;;;;;;16.38;3.60;;;13.40;99.90;;;;;;5086568;28;20115;-61
2023/05/06 02:52:23;;;;;;;15.23;2.97;;;13.40;99.90;;;;;;5071131;28;20517;-61
2023/05/06 02:54:50;;;;;;;12.95;3.10;;;13.40;99.90;;;;;;5069586;28;20044;-61
2023/05/06 02:57:17;;;;;;;17.30;3.40;;;13.30;99.90;;;;;;5069170;28;20515;-59
2023/05/06 02:59:44;;;;;;;18.25;4.28;;;13.30;99.90;;;;;;5069789;28;20554;-61
2023/05/06 03:02:11;;;;;;;20.02;5.25;;;13.30;99.90;;;;;;5070063;28;20094;-61
2023/05/06 03:04:37;;;;;;;9.95;2.55;;;13.30;99.90;;;;;;5071265;28;20045;-61
2023/05/06 03:07:04;;;;;;;13.82;3.53;;;13.30;99.90;;;;;;5070926;28;20510;-61
2023/05/06 03:09:31;;;;;;;16.48;3.72;;;13.20;99.90;;;;;;5069745;28;20048;-60
2023/05/06 03:11:58;;;;;;;13.05;3.17;;;13.20;99.90;;;;;;5070007;28;20139;-60
2023/05/06 03:14:24;;;;;;;19.40;3.80;;;13.10;99.90;;;;;;5070617;28;20491;-61
2023/05/06 03:16:51;;;;;;;17.48;2.92;;;13.10;99.90;;;;;;5069842;28;20052;-64
2023/05/06 03:19:18;;;;;;;19.58;5.32;;;13.00;99.90;;;;;;5069088;28;20048;-62
2023/05/06 03:21:45;;;;;;;14.45;3.45;;;13.00;99.90;;;;;;5069369;28;20128;-61
2023/05/06 03:24:12;;;;;;;14.07;3.13;;;13.00;99.90;;;;;;5070714;28;20090;-61
2023/05/06 03:26:38;;;;;;;21.55;3.78;;;12.90;99.90;;;;;;5070085;28;20414;-61
2023/05/06 03:29:05;;;;;;;15.18;3.85;;;12.90;99.90;;;;;;5070110;28;20052;-61
2023/05/06 03:31:32;;;;;;;10.95;3.38;;;12.90;99.90;;;;;;5069502;28;20060;-61
2023/05/06 03:33:58;;;;;;;22.30;4.93;;;12.90;99.90;;;;;;5070224;28;20045;-61
2023/05/06 03:36:26;;;;;;;14.25;3.42;;;12.80;99.90;;;;;;5071087;28;20067;-60
2023/05/06 03:38:54;;;;;;;33.65;7.30;;;12.80;99.90;;;;;;5070268;28;20462;-61
2023/05/06 03:41:20;;;;;;;20.73;3.70;;;12.80;99.90;;;;;;5074761;28;20084;-61
2023/05/06 03:43:47;;;;;;;13.98;3.65;;;12.80;99.90;;;;;;5074536;28;20147;-61
2023/05/06 03:46:14;;;;;;;14.88;4.53;;;12.80;99.90;;;;;;5071704;28;20048;-61
2023/05/06 03:48:40;;;;;;;14.77;4.30;;;12.80;99.90;;;;;;5069684;28;20052;-60
2023/05/06 03:51:07;;;;;;;17.30;3.75;;;12.80;99.90;;;;;;5070547;28;20395;-60
2023/05/06 03:53:34;;;;;;;22.00;3.72;;;12.80;99.90;;;;;;5070311;28;20051;-60
2023/05/06 03:56:01;;;;;;;26.98;4.95;;;12.80;99.90;;;;;;5068979;28;20275;-61
2023/05/06 03:58:27;;;;;;;15.55;3.25;;;12.80;99.90;;;;;;5069690;28;20087;-59
2023/05/06 04:00:54;;;;;;;20.23;4.43;;;12.80;99.90;;;;;;5070070;28;20539;-61
2023/05/06 04:03:21;;;;;;;18.02;4.15;;;12.80;99.90;;;;;;5058564;28;20072;-61
2023/05/06 04:05:49;;;;;;;12.63;3.15;;;12.70;99.90;;;;;;5058614;28;20463;-61
2023/05/06 04:08:16;;;;;;;12.60;3.85;;;12.70;99.90;;;;;;5055443;28;20110;-61
2023/05/06 04:10:42;;;;;;;16.23;3.67;;;12.60;99.90;;;;;;5070017;28;20509;-61
2023/05/06 04:13:09;;;;;;;11.85;3.90;;;12.70;99.90;;;;;;5069238;28;20048;-61
2023/05/06 04:15:36;;;;;;;15.40;2.90;;;12.70;99.90;;;;;;5068389;28;20041;-61
2023/05/06 04:18:05;;;;;;;13.52;3.58;;;12.80;99.90;;;;;;5068820;28;20055;-61
2023/05/06 04:20:31;;;;;;;21.67;4.65;;;12.80;99.90;;;;;;5067835;28;20056;-61
2023/05/06 04:22:58;;;;;;;13.73;3.13;;;12.80;99.90;;;;;;5068589;28;20171;-61
2023/05/06 04:25:26;;;;;;;11.55;3.38;;;12.80;99.90;;;;;;5064895;28;20048;-62
2023/05/06 04:27:53;;;;;;;17.00;4.05;;;12.80;99.90;;;;;;5060123;28;20083;-62
2023/05/06 04:30:21;;;;;;;25.55;3.95;;;12.80;99.90;;;;;;5061145;28;20063;-62
2023/05/06 04:32:48;;;;;;;13.45;3.40;;;12.80;99.90;;;;;;5060513;28;20048;-62
2023/05/06 04:35:15;;;;;;;17.23;3.63;;;12.80;99.90;;;;;;5059897;28;20373;-62
2023/05/06 04:37:42;;;;;;;13.98;3.63;;;12.80;99.90;;;;;;5057523;28;20098;-62
2023/05/06 04:40:13;;;;;;;18.85;3.53;;;12.70;99.90;;;;;;5064888;28;20484;-62
2023/05/06 04:42:41;;;;;;;17.02;4.45;;;12.70;99.90;;;;;;5060585;28;20068;-62
2023/05/06 04:45:08;;;;;;;13.68;3.42;;;12.70;99.90;;;;;;5057670;28;20264;-62
2023/05/06 04:47:35;;;;;;;18.23;3.85;;;12.60;99.90;;;;;;5062770;28;20041;-62
2023/05/06 04:50:03;;;;;;;13.20;3.17;;;12.70;99.90;;;;;;5054600;28;20090;-61
2023/05/06 04:52:30;;;;;;;13.77;3.30;;;12.80;99.90;;;;;;5065267;28;20099;-62
2023/05/06 04:54:57;;;;;;;12.75;3.13;;;12.80;99.90;;;;;;5053759;28;20071;-62
2023/05/06 04:57:23;;;;;;;10.60;3.33;;;12.80;99.90;;;;;;5064628;28;20054;-62
2023/05/06 04:59:50;;;;;;;15.75;4.00;;;12.80;99.90;;;;;;5067348;28;20371;-62
2023/05/06 05:02:17;;;;;;;16.85;3.65;;;12.80;99.90;;;;;;5050994;28;20064;-62
2023/05/06 05:04:43;;;;;;;21.73;3.38;;;12.90;99.90;;;;;;5059800;28;20062;-63
2023/05/06 05:07:10;;;;;;;20.17;2.92;;;13.00;99.90;;;;;;5054407;28;20056;-61
2023/05/06 05:09:37;;;;;;;15.45;3.83;;;13.00;99.90;;;;;;5059923;28;20118;-62
2023/05/06 05:12:04;;;;;;;12.40;3.10;;;13.10;99.90;;;;;;5056448;28;20583;-62
2023/05/06 05:14:31;;;;;;;30.90;5.55;;;13.10;99.90;;;;;;5057964;28;20072;-62
2023/05/06 05:16:58;;;;;;;17.05;3.55;;;13.20;99.90;;;;;;5056377;28;20116;-62
2023/05/06 05:19:25;;;;;;;19.60;3.58;;;13.20;99.90;;;;;;5067612;28;20127;-62
2023/05/06 05:21:51;;;;;;;18.33;3.53;;;13.30;99.90;;;;;;5068803;28;20056;-62
2023/05/06 05:24:18;;;;;;;17.98;5.15;;;13.30;99.90;;;;;;5065829;28;20087;-62
2023/05/06 05:26:45;;;;;;;20.70;5.28;;;13.40;99.90;;;;;;5071715;28;20048;-63
2023/05/06 05:29:11;;;;;;;18.55;4.38;;;13.40;99.90;;;;;;5072957;28;20079;-62
2023/05/06 05:31:38;;;;;;;14.82;3.28;;;13.50;99.90;;;;;;5072694;28;20044;-61
2023/05/06 05:34:06;;;;;;;15.02;4.07;;;13.60;99.90;;;;;;5072791;28;20492;-63
2023/05/06 05:36:33;;;;;;;20.15;4.07;;;13.60;99.90;;;;;;5071842;28;20374;-62
2023/05/06 05:38:59;;;;;;;17.02;3.03;;;13.70;99.90;;;;;;5071935;28;20049;-61
2023/05/06 05:41:26;;;;;;;22.25;3.53;;;13.70;99.90;;;;;;5069672;28;20430;-62
2023/05/06 05:43:53;;;;;;;18.08;3.40;;;13.80;99.90;;;;;;5039269;28;20049;-62
2023/05/06 05:46:19;;;;;;;18.10;3.35;;;13.80;99.90;;;;;;5067139;28;20130;-62
2023/05/06 05:48:46;;;;;;;28.27;5.05;;;13.80;99.90;;;;;;5056614;28;20045;-62
2023/05/06 05:51:13;;;;;;;19.20;4.10;;;13.80;99.90;;;;;;5064020;28;20262;-62
2023/05/06 05:53:40;;;;;;;18.35;4.68;;;13.90;99.90;;;;;;5066338;28;20455;-63
2023/05/06 05:56:06;;;;;;;15.82;3.38;;;13.90;99.90;;;;;;5064617;28;20051;-60
2023/05/06 05:58:33;;;;;;;15.65;3.60;;;13.90;99.90;;;;;;5070712;28;20044;-62
2023/05/06 06:01:00;;;;;;;21.52;3.20;;;14.00;99.90;;;;;;5062303;28;20077;-62
2023/05/06 06:03:27;;;;;;;23.45;3.53;;;14.00;99.90;;;;;;5055156;28;20055;-62
2023/05/06 06:05:54;;;;;;;18.13;4.25;;;14.10;99.90;;;;;;5072250;28;20130;-62
2023/05/06 06:08:21;;;;;;;15.57;3.25;;;14.10;99.90;;;;;;5068504;28;20056;-62
2023/05/06 06:10:48;;;;;;;12.55;3.17;;;14.10;99.90;;;;;;5071212;28;20127;-62
2023/05/06 06:13:14;;;;;;;17.08;3.03;;;14.20;99.90;;;;;;5072295;28;20086;-62
2023/05/06 06:15:41;;;;;;;22.75;4.00;;;14.30;99.90;;;;;;5071157;28;20052;-62
2023/05/06 06:18:09;;;;;;;19.45;3.28;;;14.30;99.90;;;;;;5067589;28;20458;-62
2023/05/06 06:20:36;;;;;;;12.60;3.15;;;14.40;99.90;;;;;;5065723;28;20053;-62
2023/05/06 06:23:03;;;;;;;15.93;3.10;;;14.50;99.90;;;;;;5059385;28;20414;-62
2023/05/06 06:25:29;;;;;;;11.65;3.15;;;14.60;99.90;;;;;;5065502;28;20062;-62
2023/05/06 06:27:56;;;;;;;16.67;3.65;;;14.70;99.90;;;;;;5070668;28;20406;-62
2023/05/06 06:30:23;;;;;;;8.05;2.38;;;14.70;99.90;;;;;;5069381;28;20044;-62
2023/05/06 06:32:51;;;;;;;10.57;2.97;;;14.80;99.90;;;;;;5070417;28;20075;-61
2023/05/06 06:35:18;;;;;;;14.30;3.58;;;14.80;99.90;;;;;;5070456;28;20045;-61
2023/05/06 06:37:45;;;;;;;9.70;2.47;;;14.90;99.90;;;;;;5070092;28;20440;-61
2023/05/06 06:40:12;;;;;;;16.27;3.08;;;14.90;99.90;;;;;;5070926;28;20047;-61
2023/05/06 06:42:39;;;;;;;10.68;2.92;;;15.00;99.90;;;;;;5070766;28;20075;-61
2023/05/06 06:45:07;;;;;;;14.00;2.70;;;15.10;99.90;;;;;;5064054;28;20044;-61
2023/05/06 06:47:34;;;;;;;12.65;2.55;;;15.10;99.90;;;;;;5069129;28;20553;-62
2023/05/06 06:50:01;;;;;;;16.83;3.63;;;15.20;99.90;;;;;;5069528;28;20128;-62
2023/05/06 06:52:28;;;;;;;13.80;3.40;;;15.20;99.90;;;;;;5069737;28;20079;-62
2023/05/06 06:54:55;;;;;;;11.20;2.50;;;15.30;99.90;;;;;;5070160;28;20072;-61
2023/05/06 06:57:21;;;;;;;16.38;3.05;;;15.30;99.90;;;;;;5070203;28;20047;-62
2023/05/06 06:59:51;;;;;;;11.93;2.80;;;15.40;99.90;;;;;;5069757;28;20483;-61
2023/05/06 07:02:19;;;;;;;19.42;2.83;;;15.40;99.90;;;;;;5069361;28;20110;-61
2023/05/06 07:04:46;;;;;;;13.10;2.53;;;15.50;99.90;;;;;;5062126;28;20530;-61
2023/05/06 07:07:13;;;;;;;11.35;3.53;;;15.50;99.90;;;;;;5063683;28;20119;-63
2023/05/06 07:09:40;;;;;;;18.15;3.95;;;15.50;99.90;;;;;;5041315;28;20364;-62
2023/05/06 07:12:07;;;;;;;9.15;2.47;;;15.60;99.90;;;;;;5067283;28;20120;-62
2023/05/06 07:14:34;;;;;;;16.35;3.35;;;15.70;99.90;;;;;;5067137;28;20124;-61
2023/05/06 07:17:00;;;;;;;15.25;2.97;;;15.60;99.90;;;;;;5062895;28;20563;-62
2023/05/06 07:19:28;;;;;;;16.67;3.35;;;15.70;99.90;;;;;;4710026;28;9999929;-62
2023/05/06 07:21:55;;;;;;;13.93;2.58;;;15.80;99.90;;;;;;5017370;28;1194813;-62
2023/05/06 07:24:22;;;;;;;12.85;3.55;;;15.80;99.90;;;;;;5062768;28;20474;-62
2023/05/06 07:26:49;;;;;;;13.00;2.53;;;15.80;99.90;;;;;;5059569;28;20051;-61
2023/05/06 07:29:16;;;;;;;18.42;3.70;;;15.90;99.90;;;;;;5064929;28;20059;-62
2023/05/06 07:31:42;;;;;;;15.02;4.03;;;16.00;99.90;;;;;;5056225;28;20559;-62
2023/05/06 07:34:09;;;;;;;13.75;3.03;;;16.10;99.90;;;;;;5062712;28;20074;-62
2023/05/06 07:36:39;;;;;;;14.70;3.60;;;16.00;99.90;;;;;;5062098;28;20120;-63
2023/05/06 07:39:06;;;;;;;16.33;4.13;;;16.10;99.90;;;;;;5064603;28;20048;-62
2023/05/06 07:41:33;;;;;;;11.38;2.72;;;16.20;99.90;;;;;;5058409;28;20244;-60
2023/05/06 07:44:00;;;;;;;13.35;3.25;;;16.20;99.90;;;;;;5057873;28;20378;-62
2023/05/06 07:46:27;;;;;;;15.50;2.78;;;16.20;99.90;;;;;;5056223;28;20313;-61
2023/05/06 07:48:54;;;;;;;11.80;2.70;;;16.30;99.90;;;;;;5064521;28;20410;-63
2023/05/06 07:51:21;;;;;;;16.17;3.50;;;16.30;99.90;;;;;;5059480;28;20047;-63
2023/05/06 07:53:48;;;;;;;11.98;3.22;;;16.40;99.90;;;;;;5064753;28;20457;-61
2023/05/06 07:56:14;;;;;;;12.90;3.33;;;16.40;99.90;;;;;;5058340;28;20047;-62
2023/05/06 07:58:41;;;;;;;12.25;2.88;;;16.40;99.90;;;;;;5064053;28;20059;-61
2023/05/06 08:01:08;;;;;;;11.25;2.28;;;16.40;99.90;;;;;;5054195;28;20110;-61
2023/05/06 08:03:34;;;;;;;17.02;3.53;;;16.40;99.90;;;;;;5062801;28;20143;-63
2023/05/06 08:06:01;;;;;;;16.48;3.30;;;16.50;99.90;;;;;;5061821;28;20139;-62
2023/05/06 08:08:28;;;;;;;14.25;2.78;;;16.60;99.90;;;;;;5055509;28;20139;-62
2023/05/06 08:10:56;;;;;;;9.60;2.88;;;16.80;99.90;;;;;;5058620;28;20044;-63
2023/05/06 08:13:24;;;;;;;16.90;3.38;;;16.90;99.90;;;;;;5058661;28;20052;-62
2023/05/06 08:15:51;;;;;;;16.55;4.70;;;16.90;99.90;;;;;;5066702;28;20079;-62
2023/05/06 08:18:18;;;;;;;18.20;7.05;;;16.80;99.90;;;;;;5061814;28;20055;-62
2023/05/06 08:20:49;;;;;;;12.93;5.63;;;16.80;99.90;;;;;;5066598;28;20102;-63
2023/05/06 08:23:15;;;;;;;16.10;3.47;;;16.70;99.90;;;;;;5043796;28;20052;-62
2023/05/06 08:25:42;;;;;;;15.15;4.38;;;16.70;99.90;;;;;;5060617;28;20072;-63
2023/05/06 08:28:09;;;;;;;15.25;3.70;;;16.60;99.90;;;;;;5056879;28;20569;-63
2023/05/06 08:30:36;;;;;;;10.68;3.70;;;16.50;99.90;;;;;;5056421;28;20048;-62
2023/05/06 08:33:03;;;;;;;11.32;4.82;;;16.30;99.90;;;;;;5066156;28;20071;-61
2023/05/06 08:35:30;;;;;;;13.73;4.60;;;16.20;99.90;;;;;;5065378;28;20040;-63
2023/05/06 08:37:56;;;;;;;10.93;4.13;;;16.10;99.90;;;;;;5067766;28;20131;-62
2023/05/06 08:40:24;;;;;;;18.52;4.43;;;16.00;99.90;;;;;;5060540;28;20055;-62
2023/05/06 08:42:50;;;;;;;15.98;4.40;;;16.00;99.90;;;;;;5062112;28;20461;-61
2023/05/06 08:45:18;;;;;;;16.55;5.07;;;16.00;99.90;;;;;;5052187;28;20057;-62
2023/05/06 08:47:47;;;;;;;14.55;4.15;;;16.10;99.90;;;;;;5062143;28;20173;-61
2023/05/06 08:50:14;;;;;;;12.02;3.78;;;16.10;99.90;;;;;;5054403;28;20049;-62
2023/05/06 08:52:41;;;;;;;13.10;4.15;;;16.10;99.90;;;;;;5049767;28;20045;-62
2023/05/06 08:55:08;;;;;;;11.05;5.03;;;16.00;99.90;;;;;;5054021;28;20103;-62
2023/05/06 08:57:36;;;;;;;19.83;5.05;;;15.90;99.90;;;;;;5060707;28;20674;-62
2023/05/06 09:00:03;;;;;;;10.85;4.13;;;15.90;99.90;;;;;;5062696;28;20104;-63
2023/05/06 09:02:30;;;;;;;13.35;4.90;;;15.80;99.90;;;;;;5060562;28;20135;-63
2023/05/06 09:05:00;;;;;;;7.38;3.78;;;15.80;99.90;;;;;;5066349;28;20048;-62
2023/05/06 09:07:26;;;;;;;13.15;3.70;;;15.80;99.90;;;;;;5041024;28;20389;-63
2023/05/06 09:09:53;;;;;;;16.40;5.00;;;15.90;99.90;;;;;;5067741;28;20124;-62
2023/05/06 09:12:20;;;;;;;12.15;4.47;;;15.90;99.90;;;;;;5050836;28;20131;-62
2023/05/06 09:14:48;;;;;;;12.70;3.88;;;15.80;99.90;;;;;;5065592;28;20106;-62
2023/05/06 09:17:23;;;;;;;10.68;2.97;;;15.80;99.90;;;;;;5066889;28;20041;-62
2023/05/06 09:19:51;;;;;;;9.45;3.10;;;15.80;99.90;;;;;;5065938;28;20167;-62
2023/05/06 09:22:25;;;;;;;13.82;3.55;;;15.80;99.90;;;;;;5066018;28;20097;-62
2023/05/06 09:24:55;;;;;;;11.70;3.30;;;15.80;99.90;;;;;;5067031;28;20139;-62
2023/05/06 09:27:33;;;;;;;14.20;3.63;;;15.70;99.90;;;;;;5063439;28;20052;-62
2023/05/06 09:30:07;;;;;;;14.57;3.10;;;15.70;99.90;;;;;;5064853;28;20127;-62
2023/05/06 09:32:34;;;;;;;7.78;4.05;;;15.60;99.90;;;;;;5046026;28;20045;-62
2023/05/06 09:35:06;;;;;;;8.38;3.03;;;15.50;99.90;;;;;;5053413;28;20114;-62
2023/05/06 09:37:32;;;;;;;7.35;2.42;;;15.50;99.90;;;;;;5065614;28;20135;-62
2023/05/06 09:39:59;;;;;;;7.45;1.70;;;15.40;99.90;;;;;;5064935;28;20044;-64
2023/05/06 09:42:28;;;;;;;13.00;2.40;;;15.40;99.90;;;;;;5063547;28;20048;-62
2023/05/06 09:44:56;;;;;;;9.38;3.33;;;15.20;99.90;;;;;;5065022;28;20047;-62
2023/05/06 09:47:32;;;;;;;9.05;2.78;;;15.20;99.90;;;;;;5063686;28;20106;-61
2023/05/06 09:50:22;;;;;;;6.47;2.20;;;15.20;99.90;;;;;;5037799;28;20047;-62
2023/05/06 09:52:49;;;;;;;7.70;2.10;;;15.20;99.90;;;;;;5063578;28;20152;-62
2023/05/06 09:55:19;;;;;;;10.38;2.42;;;15.20;99.90;;;;;;5064534;28;20084;-62
2023/05/06 09:57:47;;;;;;;6.75;2.28;;;15.20;99.90;;;;;;5063908;28;20407;-63
2023/05/06 10:00:14;;;;;;;9.38;2.97;;;15.10;99.90;;;;;;5052659;28;20043;-61
2023/05/06 10:02:42;;;;;;;11.25;2.30;;;15.20;99.90;;;;;;5047147;28;20510;-61
2023/05/06 10:05:10;;;;;;;6.93;2.38;;;15.20;99.90;;;;;;5062314;28;20567;-62
2023/05/06 10:07:38;;;;;;;6.75;2.05;;;15.30;99.90;;;;;;5047610;28;20060;-62
2023/05/06 10:10:10;;;;;;;6.88;2.35;;;15.30;99.90;;;;;;5059574;28;20551;-62
2023/05/06 10:12:37;;;;;;;5.13;1.73;;;15.30;99.90;;;;;;5057175;28;20106;-62
2023/05/06 10:15:04;;;;;;;5.70;1.92;;;15.40;99.90;;;;;;5068729;28;20098;-62
2023/05/06 10:17:31;;;;;;;6.85;1.58;;;15.40;99.90;;;;;;5067044;28;20342;-63
2023/05/06 10:19:59;;;;;;;9.63;2.28;;;15.30;99.90;;;;;;5067803;28;20230;-63
2023/05/06 10:22:36;;;;;;;4.80;1.70;;;15.20;99.90;;;;;;5067017;28;20070;-62
2023/05/06 10:25:09;;;;;;;10.30;2.17;;;15.20;99.90;;;;;;5050696;28;20053;-63
2023/05/06 10:27:39;;;;;;;6.57;1.90;;;15.20;99.90;;;;;;5062058;28;20084;-63
2023/05/06 10:30:07;;;;;;;8.48;3.40;;;15.20;99.90;;;;;;5056209;28;20115;-62
2023/05/06 10:32:34;;;;;;;7.80;2.47;;;15.10;99.90;;;;;;5049901;28;20093;-62
2023/05/06 10:35:07;;;;;;;6.22;2.28;;;15.00;99.90;;;;;;5050229;28;20048;-62
2023/05/06 10:37:34;;;;;;;;;;;15.10;99.90;;;;;;5066902;28;20068;-62
2023/05/06 10:40:01;;;;;;;4.53;1.75;;;15.10;99.90;;;;;;5055534;28;19924;-62
2023/05/06 10:42:34;;;;;;;5.68;2.13;;;15.10;99.90;;;;;;5070018;28;20063;-61
2023/05/06 10:45:02;;;;;;;13.07;2.20;;;14.90;99.90;;;;;;5061842;28;20617;-63
2023/05/06 10:48:05;;;;;;;7.10;1.45;;;15.00;99.90;;;;;;5048692;28;20447;-63
2023/05/06 10:50:32;;;;;;;7.05;1.58;;;15.10;99.90;;;;;;5068158;28;20048;-62
2023/05/06 10:52:59;;;;;;;5.25;1.42;;;15.10;99.90;;;;;;5067829;28;20510;-63
2023/05/06 10:55:33;;;;;;;7.18;1.65;;;15.20;99.90;;;;;;5055963;28;20048;-63
2023/05/06 10:58:10;;;;;;;9.20;1.77;;;15.20;99.90;;;;;;5056115;28;20052;-63
2023/05/06 11:00:37;;;;;;;10.13;1.65;;;15.30;99.90;;;;;;5065699;28;20136;-64
2023/05/06 11:03:11;;;;;;;7.07;2.67;;;15.30;99.90;;;;;;5066931;28;20053;-63
2023/05/06 11:05:51;;;;;;;7.70;2.08;;;15.40;99.90;;;;;;5062607;28;20052;-62
2023/05/06 11:08:21;;;;;;;9.80;2.72;;;15.50;99.90;;;;;;5066090;28;20567;-63
2023/05/06 11:10:48;;;;;;;8.68;2.30;;;15.40;99.90;;;;;;5067890;28;20128;-62
2023/05/06 11:13:28;;;;;;;15.95;2.25;;;15.40;99.90;;;;;;5066216;28;20051;-62
2023/05/06 11:15:56;;;;;;;9.52;2.30;;;15.30;99.90;;;;;;5049400;28;20052;-62
2023/05/06 11:18:30;;;;;;;7.70;1.90;;;15.20;99.90;;;;;;5062447;28;20078;-62
2023/05/06 11:21:03;;;;;;;10.20;2.22;;;15.20;99.90;;;;;;5059180;28;20131;-62
2023/05/06 11:23:45;;;;;;;7.07;1.45;;;15.20;99.90;;;;;;5059392;28;20044;-62
2023/05/06 11:26:12;;;;;;;5.75;1.58;;;15.30;99.90;;;;;;5057806;28;20053;-62
2023/05/06 11:28:41;;;;;;;10.02;2.10;;;15.20;99.90;;;;;;5053407;28;20486;-62
2023/05/06 11:31:08;;;;;;;5.40;1.33;;;15.20;99.90;;;;;;5052805;28;20052;-62
2023/05/06 11:33:35;;;;;;;9.50;2.30;;;15.20;99.90;;;;;;5058639;28;20288;-63
2023/05/06 11:36:03;;;;;;;5.68;1.60;;;15.20;99.90;;;;;;5049938;28;20500;-62
2023/05/06 11:38:51;;;;;;;6.43;1.85;;;15.30;99.90;;;;;;5055840;28;20095;-62
2023/05/06 11:41:18;;;;;;;15.70;1.95;;;15.30;99.90;;;;;;5067060;28;20058;-63
2023/05/06 11:43:49;;;;;;;10.90;2.67;;;15.20;99.90;;;;;;5065397;28;20479;-63
2023/05/06 11:46:20;;;;;;;7.35;1.88;;;15.10;99.90;;;;;;5066924;28;20214;-61
2023/05/06 11:48:47;;;;;;;8.45;1.52;;;15.10;99.90;;;;;;5048143;28;20139;-62
2023/05/06 11:51:15;;;;;;;8.43;2.72;;;15.20;99.90;;;;;;5066364;28;20566;-61
2023/05/06 11:53:41;;;;;;;9.40;2.05;;;15.30;99.90;;;;;;5066144;28;20048;-62
2023/05/06 11:56:08;;;;;;;7.00;1.70;;;15.30;99.90;;;;;;5065996;28;20362;-61
2023/05/06 11:58:35;;;;;;;6.88;1.98;;;15.30;99.90;;;;;;5066276;28;20098;-61
2023/05/06 12:01:02;;;;;;;3.65;1.25;;;15.30;99.90;;;;;;5066172;28;20132;-62
2023/05/06 12:03:30;;;;;;;7.85;1.73;;;15.40;99.90;;;;;;5066672;28;20418;-63
2023/05/06 12:05:57;;;;;;;7.47;2.20;;;15.40;99.90;;;;;;5060701;28;20045;-62
2023/05/06 12:08:26;;;;;;;10.13;2.45;;;15.60;99.90;;;;;;5054752;28;20419;-62
2023/05/06 12:10:55;;;;;;;8.50;1.92;;;15.60;99.90;;;;;;5064669;28;20076;-62
2023/05/06 12:13:22;;;;;;;8.77;2.35;;;15.70;99.90;;;;;;5054798;28;20830;-62
2023/05/06 12:15:49;;;;;;;7.05;1.58;;;15.70;99.90;;;;;;5048083;28;20048;-62
2023/05/06 12:18:16;;;;;;;6.20;1.00;;;15.60;99.90;;;;;;5064327;28;20044;-62
2023/05/06 12:20:42;;;;;;;9.32;2.17;;;15.50;99.90;;;;;;5065754;28;20048;-62
2023/05/06 12:23:10;;;;;;;5.03;1.33;;;15.40;99.90;;;;;;5066701;28;20052;-63
2023/05/06 12:25:37;;;;;;;3.50;1.30;;;15.50;99.90;;;;;;5066193;28;20418;-62
2023/05/06 12:28:17;;;;;;;4.13;1.40;;;15.40;99.90;;;;;;5061535;28;20115;-62
2023/05/06 12:30:44;;;;;;;5.07;1.48;;;15.60;99.90;;;;;;5055927;28;20432;-62
2023/05/06 12:33:11;;;;;;;5.75;1.42;;;15.70;99.90;;;;;;5051832;28;20057;-62
2023/05/06 12:35:38;;;;;;;7.32;0.90;;;15.80;99.90;;;;;;5058046;28;20059;-62
2023/05/06 12:38:12;;;;;;;6.45;2.45;;;15.90;99.90;;;;;;5049763;28;20076;-63
2023/05/06 12:40:40;;;;;;;2.35;0.98;;;15.90;99.90;;;;;;5054126;28;20044;-62
2023/05/06 12:43:07;;;;;;;2.83;0.90;;;16.10;99.90;;;;;;5064152;28;20393;-62
2023/05/06 12:45:34;;;;;;;1.77;0.60;;;16.20;99.90;;;;;;5064557;28;20088;-62